PWSweather.com
Personal Weather Stations
Station Observations
KCOGRAND2
Redlands, Southcamp Road & Dakota Circle, Grand Junction, CO 81507

Redlands, Southcamp Road & Dakota CircleGrand Junction, CO 81507

Lat: 39.055, Lon: -108.637

Elevation: 4870

Station Type: RadioShack WX200

Latest ConditionsUpdated 12:22:10 PM MDT Thursday, Apr 17, 2014
Currently Today's Max Today's Min Today's Average
Temperature 59.4°F15.2°C 59.4°F15.2°C 35.1°F1.7°C 44.2°F6.8°C
Dew Point -5537.2°C 20.8°F-6.2°C -0.6°F-18.1°C 14.3°F-9.8°C
Winds 3.0 mph S4.8 kmh S 8.0 mph N12.9 kmh N - 3.1 mph 5.0 kmh
Wind Gusts 13.0 mph20.9 kmh 13.4 mph21.6 kmh - -
Humidity - 51% 12% 33%
Pressure 25.10 in850.0 mb 25.13 in851.0 mb 24.98 in845.9 mb -
Hour Temp Dew Point Humidity Winds Wind Gusts Pressure Precip Precip Rate Daily Precip Total
12:22 PM 59.4°F15.2°C -5537.2°C - 3.0 mph S4.8 kmh S 13.0 mph20.9 kmh 25.10 in850.0 mb 0.00 in0.0 mm 0.00 in/hr0.0 mm/hr 0.00 in0.0 mm
12:17 PM 59.0°F15.0°C -5537.2°C - 4.0 mph SW6.4 kmh SW 7.4 mph11.9 kmh 25.10 in850.0 mb 0.00 in0.0 mm 0.00 in/hr0.0 mm/hr 0.00 in0.0 mm
12:12 PM 58.5°F14.7°C -5537.2°C - 5.0 mph WSW8.0 kmh WSW 8.3 mph13.4 kmh 25.10 in850.0 mb 0.00 in0.0 mm 0.00 in/hr0.0 mm/hr 0.00 in0.0 mm
12:07 PM 58.5°F14.7°C -5537.2°C - 4.0 mph SW6.4 kmh SW 9.6 mph15.4 kmh 25.10 in850.0 mb 0.00 in0.0 mm 0.00 in/hr0.0 mm/hr 0.00 in0.0 mm
12:02 PM 58.8°F14.9°C -5537.2°C - 4.0 mph WSW6.4 kmh WSW 6.9 mph11.1 kmh 25.10 in850.0 mb 0.00 in0.0 mm 0.00 in/hr0.0 mm/hr 0.00 in0.0 mm
11:57 AM 59.4°F15.2°C 6.8°F-14.0°C 12% 4.0 mph NW6.4 kmh NW 7.4 mph11.9 kmh 25.10 in850.0 mb 0.00 in0.0 mm 0.00 in/hr0.0 mm/hr 0.00 in0.0 mm
11:52 AM 58.6°F14.8°C 6.3°F-14.3°C 12% 5.0 mph NW8.0 kmh NW 8.3 mph13.4 kmh 25.10 in850.0 mb 0.00 in0.0 mm 0.00 in/hr0.0 mm/hr 0.00 in0.0 mm
11:47 AM 58.1°F14.5°C -5537.2°C - 5.0 mph WNW8.0 kmh WNW 9.2 mph14.8 kmh 25.10 in850.0 mb 0.00 in0.0 mm 0.00 in/hr0.0 mm/hr 0.00 in0.0 mm
11:42 AM 58.1°F14.5°C 5.7°F-14.6°C 12% 4.0 mph W6.4 kmh W 8.3 mph13.4 kmh 25.10 in850.0 mb 0.00 in0.0 mm 0.00 in/hr0.0 mm/hr 0.00 in0.0 mm
11:37 AM 57.6°F14.2°C 5.4°F-14.8°C 12% 4.0 mph W6.4 kmh W 6.9 mph11.1 kmh 25.10 in850.0 mb 0.00 in0.0 mm 0.00 in/hr0.0 mm/hr 0.00 in0.0 mm
11:32 AM 57.6°F14.2°C 5.4°F-14.8°C 12% 4.0 mph WNW6.4 kmh WNW 7.8 mph12.6 kmh 25.13 in851.0 mb 0.00 in0.0 mm 0.00 in/hr0.0 mm/hr 0.00 in0.0 mm
11:27 AM 57.2°F14.0°C 5.0°F-15.0°C 12% 5.0 mph NW8.0 kmh NW 7.4 mph11.9 kmh 25.13 in851.0 mb 0.00 in0.0 mm 0.00 in/hr0.0 mm/hr 0.00 in0.0 mm
11:22 AM 56.1°F13.4°C 4.3°F-15.4°C 12% 6.0 mph NW9.7 kmh NW 8.3 mph13.4 kmh 25.13 in851.0 mb 0.00 in0.0 mm 0.00 in/hr0.0 mm/hr 0.00 in0.0 mm
11:17 AM 56.3°F13.5°C 4.5°F-15.3°C 12% 7.0 mph NW11.3 kmh NW 10.1 mph16.3 kmh 25.13 in851.0 mb 0.00 in0.0 mm 0.00 in/hr0.0 mm/hr 0.00 in0.0 mm
11:12 AM 56.1°F13.4°C 4.3°F-15.4°C 12% 7.0 mph NW11.3 kmh NW 10.1 mph16.3 kmh 25.13 in851.0 mb 0.00 in0.0 mm 0.00 in/hr0.0 mm/hr 0.00 in0.0 mm
11:07 AM 56.3°F13.5°C 4.5°F-15.3°C 12% 6.0 mph NNW9.7 kmh NNW 10.5 mph16.9 kmh 25.13 in851.0 mb 0.00 in0.0 mm 0.00 in/hr0.0 mm/hr 0.00 in0.0 mm
11:02 AM 56.5°F13.6°C 4.5°F-15.3°C 12% 6.0 mph NNW9.7 kmh NNW 11.6 mph18.7 kmh 25.13 in851.0 mb 0.00 in0.0 mm 0.00 in/hr0.0 mm/hr 0.00 in0.0 mm
10:57 AM 55.4°F13.0°C 3.7°F-15.7°C 12% 6.0 mph NW9.7 kmh NW 11.0 mph17.7 kmh 25.13 in851.0 mb 0.00 in0.0 mm 0.00 in/hr0.0 mm/hr 0.00 in0.0 mm
10:52 AM 55.6°F13.1°C 3.7°F-15.7°C 12% 6.0 mph NW9.7 kmh NW 10.1 mph16.3 kmh 25.13 in851.0 mb 0.00 in0.0 mm 0.00 in/hr0.0 mm/hr 0.00 in0.0 mm
10:47 AM 54.5°F12.5°C 4.6°F-15.2°C 13% 7.0 mph NNW11.3 kmh NNW 10.1 mph16.3 kmh 25.13 in851.0 mb 0.00 in0.0 mm 0.00 in/hr0.0 mm/hr 0.00 in0.0 mm
10:42 AM 54.5°F12.5°C 7.9°F-13.4°C 15% 7.0 mph NNW11.3 kmh NNW 13.4 mph21.6 kmh 25.13 in851.0 mb 0.00 in0.0 mm 0.00 in/hr0.0 mm/hr 0.00 in0.0 mm
10:37 AM 54.5°F12.5°C 11.8°F-11.2°C 18% 7.0 mph NNW11.3 kmh NNW 10.5 mph16.9 kmh 25.13 in851.0 mb 0.00 in0.0 mm 0.00 in/hr0.0 mm/hr 0.00 in0.0 mm
10:32 AM 54.7°F12.6°C 10.8°F-11.8°C 17% 7.0 mph N11.3 kmh N 11.6 mph18.7 kmh 25.13 in851.0 mb 0.00 in0.0 mm 0.00 in/hr0.0 mm/hr 0.00 in0.0 mm
10:27 AM 53.4°F11.9°C 10.9°F-11.7°C 18% 7.0 mph NNW11.3 kmh NNW 10.1 mph16.3 kmh 25.13 in851.0 mb 0.00 in0.0 mm 0.00 in/hr0.0 mm/hr 0.00 in0.0 mm
10:22 AM 53.8°F12.1°C 11.3°F-11.5°C 18% 7.0 mph NNW11.3 kmh NNW 9.6 mph15.4 kmh 25.13 in851.0 mb 0.00 in0.0 mm 0.00 in/hr0.0 mm/hr 0.00 in0.0 mm
10:17 AM 52.7°F11.5°C 10.4°F-12.0°C 18% 8.0 mph N12.9 kmh N 12.1 mph19.5 kmh 25.13 in851.0 mb 0.00 in0.0 mm 0.00 in/hr0.0 mm/hr 0.00 in0.0 mm
10:11 AM 53.2°F11.8°C 10.9°F-11.7°C 18% 7.0 mph NNW11.3 kmh NNW 12.1 mph19.5 kmh 25.13 in851.0 mb 0.00 in0.0 mm 0.00 in/hr0.0 mm/hr 0.00 in0.0 mm
10:06 AM 53.1°F11.7°C 13.1°F-10.5°C 20% 7.0 mph NNW11.3 kmh NNW 10.1 mph16.3 kmh 25.13 in851.0 mb 0.00 in0.0 mm 0.00 in/hr0.0 mm/hr 0.00 in0.0 mm
10:01 AM 51.4°F10.8°C 12.7°F-10.7°C 21% 7.0 mph NNW11.3 kmh NNW 12.5 mph20.1 kmh 25.13 in851.0 mb 0.00 in0.0 mm 0.00 in/hr0.0 mm/hr 0.00 in0.0 mm
09:56 AM 52.0°F11.1°C 18.1°F-7.7°C 26% 6.0 mph NNW9.7 kmh NNW 11.0 mph17.7 kmh 25.13 in851.0 mb 0.00 in0.0 mm 0.00 in/hr0.0 mm/hr 0.00 in0.0 mm
09:51 AM 51.3°F10.7°C 17.6°F-8.0°C 26% 6.0 mph NNW9.7 kmh NNW 9.2 mph14.8 kmh 25.13 in851.0 mb 0.00 in0.0 mm 0.00 in/hr0.0 mm/hr 0.00 in0.0 mm
09:46 AM 50.7°F10.4°C 18.0°F-7.8°C 27% 6.0 mph NNW9.7 kmh NNW 11.6 mph18.7 kmh 25.13 in851.0 mb 0.00 in0.0 mm 0.00 in/hr0.0 mm/hr 0.00 in0.0 mm
09:41 AM 50.7°F10.4°C 18.0°F-7.8°C 27% 6.0 mph NNW9.7 kmh NNW 8.3 mph13.4 kmh 25.13 in851.0 mb 0.00 in0.0 mm 0.00 in/hr0.0 mm/hr 0.00 in0.0 mm
09:36 AM 50.7°F10.4°C 18.9°F-7.3°C 28% 6.0 mph NW9.7 kmh NW 10.5 mph16.9 kmh 25.13 in851.0 mb 0.00 in0.0 mm 0.00 in/hr0.0 mm/hr 0.00 in0.0 mm
09:31 AM 50.2°F10.1°C 19.2°F-7.1°C 29% 5.0 mph NW8.0 kmh NW 8.7 mph14.0 kmh 25.10 in850.0 mb 0.00 in0.0 mm 0.00 in/hr0.0 mm/hr 0.00 in0.0 mm
09:26 AM 49.6°F9.8°C 18.7°F-7.4°C 29% 5.0 mph NW8.0 kmh NW 7.4 mph11.9 kmh 25.10 in850.0 mb 0.00 in0.0 mm 0.00 in/hr0.0 mm/hr 0.00 in0.0 mm
09:21 AM 49.1°F9.5°C 18.3°F-7.6°C 29% 5.0 mph NW8.0 kmh NW 8.3 mph13.4 kmh 25.10 in850.0 mb 0.00 in0.0 mm 0.00 in/hr0.0 mm/hr 0.00 in0.0 mm
09:16 AM 49.1°F9.5°C 19.0°F-7.2°C 30% 6.0 mph NW9.7 kmh NW 6.9 mph11.1 kmh 25.10 in850.0 mb 0.00 in0.0 mm 0.00 in/hr0.0 mm/hr 0.00 in0.0 mm
09:11 AM 48.9°F9.4°C 19.6°F-6.9°C 31% 5.0 mph NW8.0 kmh NW 8.7 mph14.0 kmh 25.10 in850.0 mb 0.00 in0.0 mm 0.00 in/hr0.0 mm/hr 0.00 in0.0 mm
09:06 AM 48.9°F9.4°C 19.6°F-6.9°C 31% 4.0 mph NW6.4 kmh NW 6.9 mph11.1 kmh 25.10 in850.0 mb 0.00 in0.0 mm 0.00 in/hr0.0 mm/hr 0.00 in0.0 mm
09:01 AM 47.8°F8.8°C 18.7°F-7.4°C 31% 4.0 mph NNW6.4 kmh NNW 6.7 mph10.8 kmh 25.10 in850.0 mb 0.00 in0.0 mm 0.00 in/hr0.0 mm/hr 0.00 in0.0 mm
08:56 AM 47.5°F8.6°C 18.3°F-7.6°C 31% 5.0 mph NNW8.0 kmh NNW 6.9 mph11.1 kmh 25.10 in850.0 mb 0.00 in0.0 mm 0.00 in/hr0.0 mm/hr 0.00 in0.0 mm
08:51 AM 47.3°F8.5°C 18.1°F-7.7°C 31% 5.0 mph N8.0 kmh N 6.9 mph11.1 kmh 25.10 in850.0 mb 0.00 in0.0 mm 0.00 in/hr0.0 mm/hr 0.00 in0.0 mm
08:46 AM 47.1°F8.4°C 19.6°F-6.9°C 33% 5.0 mph NNW8.0 kmh NNW 7.4 mph11.9 kmh 25.10 in850.0 mb 0.00 in0.0 mm 0.00 in/hr0.0 mm/hr 0.00 in0.0 mm
08:41 AM 46.4°F8.0°C 20.8°F-6.2°C 36% 5.0 mph NNW8.0 kmh NNW 6.7 mph10.8 kmh 25.10 in850.0 mb 0.00 in0.0 mm 0.00 in/hr0.0 mm/hr 0.00 in0.0 mm
08:36 AM 46.0°F7.8°C 19.9°F-6.7°C 35% 4.0 mph NNW6.4 kmh NNW 6.3 mph10.1 kmh 25.10 in850.0 mb 0.00 in0.0 mm 0.00 in/hr0.0 mm/hr 0.00 in0.0 mm
08:31 AM 45.9°F7.7°C 19.8°F-6.8°C 35% 5.0 mph NNW8.0 kmh NNW 6.7 mph10.8 kmh 25.10 in850.0 mb 0.00 in0.0 mm 0.00 in/hr0.0 mm/hr 0.00 in0.0 mm
08:26 AM 45.7°F7.6°C 19.6°F-6.9°C 35% 5.0 mph NNW8.0 kmh NNW 6.9 mph11.1 kmh 25.10 in850.0 mb 0.00 in0.0 mm 0.00 in/hr0.0 mm/hr 0.00 in0.0 mm
08:21 AM 45.3°F7.4°C 18.0°F-7.8°C 33% 5.0 mph N8.0 kmh N 6.9 mph11.1 kmh 25.10 in850.0 mb 0.00 in0.0 mm 0.00 in/hr0.0 mm/hr 0.00 in0.0 mm
08:16 AM 45.9°F7.7°C 20.5°F-6.4°C 36% 4.0 mph N6.4 kmh N 6.7 mph10.8 kmh 25.10 in850.0 mb 0.00 in0.0 mm 0.00 in/hr0.0 mm/hr 0.00 in0.0 mm
08:10 AM 45.1°F7.3°C 19.8°F-6.8°C 36% 5.0 mph N8.0 kmh N 6.3 mph10.1 kmh 25.10 in850.0 mb 0.00 in0.0 mm 0.00 in/hr0.0 mm/hr 0.00 in0.0 mm
08:05 AM 43.3°F6.3°C 19.4°F-7.0°C 38% 5.0 mph NNE8.0 kmh NNE 7.4 mph11.9 kmh 25.10 in850.0 mb 0.00 in0.0 mm 0.00 in/hr0.0 mm/hr 0.00 in0.0 mm
08:00 AM 43.0°F6.1°C 19.2°F-7.1°C 38% 5.0 mph N8.0 kmh N 6.9 mph11.1 kmh 25.10 in850.0 mb 0.00 in0.0 mm 0.00 in/hr0.0 mm/hr 0.00 in0.0 mm
07:55 AM 42.8°F6.0°C 18.3°F-7.6°C 37% 5.0 mph N8.0 kmh N 6.7 mph10.8 kmh 25.10 in850.0 mb 0.00 in0.0 mm 0.00 in/hr0.0 mm/hr 0.00 in0.0 mm
07:50 AM 42.4°F5.8°C 18.0°F-7.8°C 37% 4.0 mph NNW6.4 kmh NNW 6.7 mph10.8 kmh 25.10 in850.0 mb 0.00 in0.0 mm 0.00 in/hr0.0 mm/hr 0.00 in0.0 mm
07:45 AM 43.3°F6.3°C 17.6°F-8.0°C 35% 4.0 mph NNW6.4 kmh NNW 4.9 mph7.9 kmh 25.10 in850.0 mb 0.00 in0.0 mm 0.00 in/hr0.0 mm/hr 0.00 in0.0 mm
07:40 AM 43.0°F6.1°C 17.2°F-8.2°C 35% 4.0 mph N6.4 kmh N 5.8 mph9.3 kmh 25.10 in850.0 mb 0.00 in0.0 mm 0.00 in/hr0.0 mm/hr 0.00 in0.0 mm
07:35 AM 43.2°F6.2°C 18.0°F-7.8°C 36% 4.0 mph NNE6.4 kmh NNE 5.4 mph8.7 kmh 25.10 in850.0 mb 0.00 in0.0 mm 0.00 in/hr0.0 mm/hr 0.00 in0.0 mm
07:30 AM 42.4°F5.8°C 18.7°F-7.4°C 38% 4.0 mph NNE6.4 kmh NNE 4.9 mph7.9 kmh 25.07 in849.0 mb 0.00 in0.0 mm 0.00 in/hr0.0 mm/hr 0.00 in0.0 mm
07:25 AM 41.7°F5.4°C 18.7°F-7.4°C 39% 3.0 mph NNE4.8 kmh NNE 5.4 mph8.7 kmh 25.07 in849.0 mb 0.00 in0.0 mm 0.00 in/hr0.0 mm/hr 0.00 in0.0 mm
07:20 AM 40.3°F4.6°C 19.0°F-7.2°C 42% 2.0 mph NNE3.2 kmh NNE 6.3 mph10.1 kmh 25.07 in849.0 mb 0.00 in0.0 mm 0.00 in/hr0.0 mm/hr 0.00 in0.0 mm
07:15 AM 37.9°F3.3°C 19.0°F-7.2°C 46% 1.0 mph NNE1.6 kmh NNE 4.5 mph7.2 kmh 25.07 in849.0 mb 0.00 in0.0 mm 0.00 in/hr0.0 mm/hr 0.00 in0.0 mm
07:10 AM 37.8°F3.2°C 18.9°F-7.3°C 46% Calm Calm 4.9 mph7.9 kmh 25.07 in849.0 mb 0.00 in0.0 mm 0.00 in/hr0.0 mm/hr 0.00 in0.0 mm
07:05 AM 38.1°F3.4°C 18.7°F-7.4°C 45% Calm Calm 3.1 mph5.0 kmh 25.07 in849.0 mb 0.00 in0.0 mm 0.00 in/hr0.0 mm/hr 0.00 in0.0 mm
07:00 AM 37.9°F3.3°C 19.0°F-7.2°C 46% Calm Calm 3.6 mph5.8 kmh 25.07 in849.0 mb 0.00 in0.0 mm 0.00 in/hr0.0 mm/hr 0.00 in0.0 mm
06:55 AM 36.7°F2.6°C 19.8°F-6.8°C 50% 1.0 mph NNE1.6 kmh NNE 2.7 mph4.3 kmh 25.07 in849.0 mb 0.00 in0.0 mm 0.00 in/hr0.0 mm/hr 0.00 in0.0 mm
06:50 AM 35.8°F2.1°C 19.4°F-7.0°C 51% 1.0 mph NNE1.6 kmh NNE 4.0 mph6.4 kmh 25.07 in849.0 mb 0.00 in0.0 mm 0.00 in/hr0.0 mm/hr 0.00 in0.0 mm
06:45 AM 35.1°F1.7°C 18.9°F-7.3°C 51% 1.0 mph NNE1.6 kmh NNE 4.0 mph6.4 kmh 25.07 in849.0 mb 0.00 in0.0 mm 0.00 in/hr0.0 mm/hr 0.00 in0.0 mm
06:40 AM 35.8°F2.1°C 18.5°F-7.5°C 49% 1.0 mph NNE1.6 kmh NNE 4.0 mph6.4 kmh 25.07 in849.0 mb 0.00 in0.0 mm 0.00 in/hr0.0 mm/hr 0.00 in0.0 mm
06:35 AM 36.5°F2.5°C 18.1°F-7.7°C 47% 3.0 mph N4.8 kmh N 4.5 mph7.2 kmh 25.07 in849.0 mb 0.00 in0.0 mm 0.00 in/hr0.0 mm/hr 0.00 in0.0 mm
06:30 AM 37.0°F2.8°C 18.1°F-7.7°C 46% 5.0 mph N8.0 kmh N 9.6 mph15.4 kmh 25.07 in849.0 mb 0.00 in0.0 mm 0.00 in/hr0.0 mm/hr 0.00 in0.0 mm
06:25 AM 37.9°F3.3°C 19.6°F-6.9°C 47% 7.0 mph N11.3 kmh N 9.6 mph15.4 kmh 25.07 in849.0 mb 0.00 in0.0 mm 0.00 in/hr0.0 mm/hr 0.00 in0.0 mm
06:20 AM 37.4°F3.0°C 19.0°F-7.2°C 47% 7.0 mph NNW11.3 kmh NNW 11.0 mph17.7 kmh 25.07 in849.0 mb 0.00 in0.0 mm 0.00 in/hr0.0 mm/hr 0.00 in0.0 mm
06:15 AM 37.4°F3.0°C 18.5°F-7.5°C 46% 6.0 mph NNW9.7 kmh NNW 9.2 mph14.8 kmh 25.04 in848.0 mb 0.00 in0.0 mm 0.00 in/hr0.0 mm/hr 0.00 in0.0 mm
06:10 AM 37.6°F3.1°C 19.8°F-6.8°C 48% 5.0 mph N8.0 kmh N 6.7 mph10.8 kmh 25.04 in848.0 mb 0.00 in0.0 mm 0.00 in/hr0.0 mm/hr 0.00 in0.0 mm
06:05 AM 36.3°F2.4°C 19.4°F-7.0°C 50% 4.0 mph NNE6.4 kmh NNE 6.3 mph10.1 kmh 25.04 in848.0 mb 0.00 in0.0 mm 0.00 in/hr0.0 mm/hr 0.00 in0.0 mm
06:00 AM 35.6°F2.0°C 18.9°F-7.3°C 50% 3.0 mph NNE4.8 kmh NNE 4.9 mph7.9 kmh 25.04 in848.0 mb 0.00 in0.0 mm 0.00 in/hr0.0 mm/hr 0.00 in0.0 mm
05:55 AM 35.6°F2.0°C 18.9°F-7.3°C 50% 3.0 mph NNE4.8 kmh NNE 4.5 mph7.2 kmh 25.04 in848.0 mb 0.00 in0.0 mm 0.00 in/hr0.0 mm/hr 0.00 in0.0 mm
05:50 AM 35.8°F2.1°C 19.0°F-7.2°C 50% 4.0 mph NNE6.4 kmh NNE 5.4 mph8.7 kmh 25.04 in848.0 mb 0.00 in0.0 mm 0.00 in/hr0.0 mm/hr 0.00 in0.0 mm
05:45 AM 35.6°F2.0°C 18.9°F-7.3°C 50% 4.0 mph NNE6.4 kmh NNE 5.4 mph8.7 kmh 25.04 in848.0 mb 0.00 in0.0 mm 0.00 in/hr0.0 mm/hr 0.00 in0.0 mm
05:40 AM 35.6°F2.0°C 18.9°F-7.3°C 50% 4.0 mph NNE6.4 kmh NNE 5.8 mph9.3 kmh 25.04 in848.0 mb 0.00 in0.0 mm 0.00 in/hr0.0 mm/hr 0.00 in0.0 mm
05:35 AM 35.8°F2.1°C 19.0°F-7.2°C 50% 3.0 mph N4.8 kmh N 5.4 mph8.7 kmh 25.04 in848.0 mb 0.00 in0.0 mm 0.00 in/hr0.0 mm/hr 0.00 in0.0 mm
05:30 AM 35.6°F2.0°C 18.3°F-7.6°C 49% 2.0 mph N3.2 kmh N 4.9 mph7.9 kmh 25.04 in848.0 mb 0.00 in0.0 mm 0.00 in/hr0.0 mm/hr 0.00 in0.0 mm
05:25 AM 36.5°F2.5°C 18.7°F-7.4°C 48% 3.0 mph N4.8 kmh N 3.6 mph5.8 kmh 25.04 in848.0 mb 0.00 in0.0 mm 0.00 in/hr0.0 mm/hr 0.00 in0.0 mm
05:20 AM 36.5°F2.5°C 18.1°F-7.7°C 47% 4.0 mph NNW6.4 kmh NNW 5.4 mph8.7 kmh 25.04 in848.0 mb 0.00 in0.0 mm 0.00 in/hr0.0 mm/hr 0.00 in0.0 mm
05:15 AM 36.5°F2.5°C 18.7°F-7.4°C 48% 4.0 mph NW6.4 kmh NW 5.4 mph8.7 kmh 25.04 in848.0 mb 0.00 in0.0 mm 0.00 in/hr0.0 mm/hr 0.00 in0.0 mm
05:10 AM 36.0°F2.2°C 18.1°F-7.7°C 48% 2.0 mph NW3.2 kmh NW 4.9 mph7.9 kmh 25.04 in848.0 mb 0.00 in0.0 mm 0.00 in/hr0.0 mm/hr 0.00 in0.0 mm
05:05 AM 35.8°F2.1°C 17.1°F-8.3°C 46% Calm Calm 3.6 mph5.8 kmh 25.04 in848.0 mb 0.00 in0.0 mm 0.00 in/hr0.0 mm/hr 0.00 in0.0 mm
05:00 AM 36.0°F2.2°C 16.7°F-8.5°C 45% 1.0 mph NW1.6 kmh NW 3.1 mph5.0 kmh 25.04 in848.0 mb 0.00 in0.0 mm 0.00 in/hr0.0 mm/hr 0.00 in0.0 mm
04:55 AM 36.9°F2.7°C 16.5°F-8.6°C 43% 2.0 mph NW3.2 kmh NW 4.0 mph6.4 kmh 25.04 in848.0 mb 0.00 in0.0 mm 0.00 in/hr0.0 mm/hr 0.00 in0.0 mm
04:50 AM 37.6°F3.1°C 17.1°F-8.3°C 43% 3.0 mph NW4.8 kmh NW 4.9 mph7.9 kmh 25.04 in848.0 mb 0.00 in0.0 mm 0.00 in/hr0.0 mm/hr 0.00 in0.0 mm
04:45 AM 37.6°F3.1°C 17.1°F-8.3°C 43% 1.0 mph NW1.6 kmh NW 4.9 mph7.9 kmh 25.04 in848.0 mb 0.00 in0.0 mm 0.00 in/hr0.0 mm/hr 0.00 in0.0 mm
04:40 AM 37.0°F2.8°C 16.7°F-8.5°C 43% 1.0 mph NW1.6 kmh NW -- 25.04 in848.0 mb 0.00 in0.0 mm 0.00 in/hr0.0 mm/hr 0.00 in0.0 mm
04:35 AM 37.0°F2.8°C 16.7°F-8.5°C 43% 2.0 mph NNW3.2 kmh NNW 6.3 mph10.1 kmh 25.04 in848.0 mb 0.00 in0.0 mm 0.00 in/hr0.0 mm/hr 0.00 in0.0 mm
04:30 AM 36.0°F2.2°C 16.7°F-8.5°C 45% 2.0 mph N3.2 kmh N 4.0 mph6.4 kmh 25.01 in846.9 mb 0.00 in0.0 mm 0.00 in/hr0.0 mm/hr 0.00 in0.0 mm
04:25 AM 36.0°F2.2°C 16.2°F-8.8°C 44% 2.0 mph N3.2 kmh N 4.9 mph7.9 kmh 25.01 in846.9 mb 0.00 in0.0 mm 0.00 in/hr0.0 mm/hr 0.00 in0.0 mm
04:20 AM 36.5°F2.5°C 15.6°F-9.1°C 42% 1.0 mph N1.6 kmh N 4.0 mph6.4 kmh 25.01 in846.9 mb 0.00 in0.0 mm 0.00 in/hr0.0 mm/hr 0.00 in0.0 mm
04:15 AM 36.7°F2.6°C 15.8°F-9.0°C 42% Calm Calm 4.0 mph6.4 kmh 25.01 in846.9 mb 0.00 in0.0 mm 0.00 in/hr0.0 mm/hr 0.00 in0.0 mm
04:10 AM 37.0°F2.8°C 15.6°F-9.1°C 41% Calm Calm 3.1 mph5.0 kmh 25.01 in846.9 mb 0.00 in0.0 mm 0.00 in/hr0.0 mm/hr 0.00 in0.0 mm
04:05 AM 37.2°F2.9°C 15.8°F-9.0°C 41% Calm Calm -- 25.01 in846.9 mb 0.00 in0.0 mm 0.00 in/hr0.0 mm/hr 0.00 in0.0 mm
04:00 AM 36.9°F2.7°C 16.0°F-8.9°C 42% Calm Calm -- 25.01 in846.9 mb 0.00 in0.0 mm 0.00 in/hr0.0 mm/hr 0.00 in0.0 mm
03:55 AM 37.4°F3.0°C 15.8°F-9.0°C 41% Calm Calm -- 25.01 in846.9 mb 0.00 in0.0 mm 0.00 in/hr0.0 mm/hr 0.00 in0.0 mm
03:50 AM 37.6°F3.1°C 16.0°F-8.9°C 41% Calm Calm -- 25.01 in846.9 mb 0.00 in0.0 mm 0.00 in/hr0.0 mm/hr 0.00 in0.0 mm
03:45 AM 37.9°F3.3°C 16.3°F-8.7°C 41% Calm Calm 3.1 mph5.0 kmh 25.01 in846.9 mb 0.00 in0.0 mm 0.00 in/hr0.0 mm/hr 0.00 in0.0 mm
03:40 AM 37.6°F3.1°C 16.0°F-8.9°C 41% Calm Calm 2.7 mph4.3 kmh 25.01 in846.9 mb 0.00 in0.0 mm 0.00 in/hr0.0 mm/hr 0.00 in0.0 mm
03:35 AM 37.0°F2.8°C 16.2°F-8.8°C 42% Calm Calm -- 25.01 in846.9 mb 0.00 in0.0 mm 0.00 in/hr0.0 mm/hr 0.00 in0.0 mm
03:30 AM 37.6°F3.1°C 16.0°F-8.9°C 41% Calm Calm 3.1 mph5.0 kmh 25.01 in846.9 mb 0.00 in0.0 mm 0.00 in/hr0.0 mm/hr 0.00 in0.0 mm
03:25 AM 37.9°F3.3°C 16.3°F-8.7°C 41% Calm Calm 4.0 mph6.4 kmh 25.01 in846.9 mb 0.00 in0.0 mm 0.00 in/hr0.0 mm/hr 0.00 in0.0 mm
03:20 AM 38.8°F3.8°C 16.0°F-8.9°C 39% Calm Calm 3.6 mph5.8 kmh 25.01 in846.9 mb 0.00 in0.0 mm 0.00 in/hr0.0 mm/hr 0.00 in0.0 mm
03:15 AM 39.2°F4.0°C 16.3°F-8.7°C 39% Calm Calm 3.1 mph5.0 kmh 25.01 in846.9 mb 0.00 in0.0 mm 0.00 in/hr0.0 mm/hr 0.00 in0.0 mm
03:10 AM 38.5°F3.6°C 15.6°F-9.1°C 39% Calm Calm -- 25.01 in846.9 mb 0.00 in0.0 mm 0.00 in/hr0.0 mm/hr 0.00 in0.0 mm
03:05 AM 38.8°F3.8°C 16.0°F-8.9°C 39% Calm Calm 3.1 mph5.0 kmh 25.01 in846.9 mb 0.00 in0.0 mm 0.00 in/hr0.0 mm/hr 0.00 in0.0 mm
03:00 AM 38.7°F3.7°C 15.8°F-9.0°C 39% Calm Calm -- 25.01 in846.9 mb 0.00 in0.0 mm 0.00 in/hr0.0 mm/hr 0.00 in0.0 mm
02:55 AM 38.7°F3.7°C 15.8°F-9.0°C 39% Calm Calm 3.1 mph5.0 kmh 25.01 in846.9 mb 0.00 in0.0 mm 0.00 in/hr0.0 mm/hr 0.00 in0.0 mm
02:50 AM 38.7°F3.7°C 15.8°F-9.0°C 39% 1.0 mph N1.6 kmh N 3.1 mph5.0 kmh 25.01 in846.9 mb 0.00 in0.0 mm 0.00 in/hr0.0 mm/hr 0.00 in0.0 mm
02:45 AM 39.0°F3.9°C 16.2°F-8.8°C 39% 3.0 mph N4.8 kmh N 5.4 mph8.7 kmh 25.01 in846.9 mb 0.00 in0.0 mm 0.00 in/hr0.0 mm/hr 0.00 in0.0 mm
02:40 AM 39.0°F3.9°C 16.2°F-8.8°C 39% 3.0 mph NE4.8 kmh NE 5.8 mph9.3 kmh 25.01 in846.9 mb 0.00 in0.0 mm 0.00 in/hr0.0 mm/hr 0.00 in0.0 mm
02:35 AM 39.6°F4.2°C 14.2°F-9.9°C 35% 1.0 mph E1.6 kmh E 4.9 mph7.9 kmh 25.01 in846.9 mb 0.00 in0.0 mm 0.00 in/hr0.0 mm/hr 0.00 in0.0 mm
02:30 AM 41.0°F5.0°C 13.5°F-10.3°C 32% 1.0 mph E1.6 kmh E 4.0 mph6.4 kmh 25.01 in846.9 mb 0.00 in0.0 mm 0.00 in/hr0.0 mm/hr 0.00 in0.0 mm
02:24 AM 41.5°F5.3°C 13.1°F-10.5°C 31% 2.0 mph E3.2 kmh E 5.8 mph9.3 kmh 25.01 in846.9 mb 0.00 in0.0 mm 0.00 in/hr0.0 mm/hr 0.00 in0.0 mm
02:19 AM 41.2°F5.1°C 12.2°F-11.0°C 30% 2.0 mph N3.2 kmh N 6.3 mph10.1 kmh 25.01 in846.9 mb 0.00 in0.0 mm 0.00 in/hr0.0 mm/hr 0.00 in0.0 mm
02:14 AM 42.1°F5.6°C 12.2°F-11.0°C 29% 2.0 mph NNW3.2 kmh NNW 4.0 mph6.4 kmh 25.01 in846.9 mb 0.00 in0.0 mm 0.00 in/hr0.0 mm/hr 0.00 in0.0 mm
02:09 AM 42.4°F5.8°C 12.4°F-10.9°C 29% 2.0 mph NNW3.2 kmh NNW 4.0 mph6.4 kmh 25.01 in846.9 mb 0.00 in0.0 mm 0.00 in/hr0.0 mm/hr 0.00 in0.0 mm
02:04 AM 43.2°F6.2°C 13.1°F-10.5°C 29% 1.0 mph NNW1.6 kmh NNW 4.0 mph6.4 kmh 25.01 in846.9 mb 0.00 in0.0 mm 0.00 in/hr0.0 mm/hr 0.00 in0.0 mm
01:59 AM 42.8°F6.0°C 12.7°F-10.7°C 29% Calm Calm 3.1 mph5.0 kmh 25.01 in846.9 mb 0.00 in0.0 mm 0.00 in/hr0.0 mm/hr 0.00 in0.0 mm
01:54 AM 42.1°F5.6°C 12.2°F-11.0°C 29% Calm Calm 2.7 mph4.3 kmh 25.01 in846.9 mb 0.00 in0.0 mm 0.00 in/hr0.0 mm/hr 0.00 in0.0 mm
01:49 AM 42.3°F5.7°C 12.4°F-10.9°C 29% 1.0 mph NNW1.6 kmh NNW 3.6 mph5.8 kmh 25.01 in846.9 mb 0.00 in0.0 mm 0.00 in/hr0.0 mm/hr 0.00 in0.0 mm
01:44 AM 41.7°F5.4°C 12.6°F-10.8°C 30% 1.0 mph NNW1.6 kmh NNW 3.6 mph5.8 kmh 25.01 in846.9 mb 0.00 in0.0 mm 0.00 in/hr0.0 mm/hr 0.00 in0.0 mm
01:39 AM 41.2°F5.1°C 12.9°F-10.6°C 31% 2.0 mph NNW3.2 kmh NNW 4.0 mph6.4 kmh 25.01 in846.9 mb 0.00 in0.0 mm 0.00 in/hr0.0 mm/hr 0.00 in0.0 mm
01:34 AM 42.4°F5.8°C 11.7°F-11.3°C 28% 2.0 mph NNW3.2 kmh NNW 3.6 mph5.8 kmh 25.01 in846.9 mb 0.00 in0.0 mm 0.00 in/hr0.0 mm/hr 0.00 in0.0 mm
01:29 AM 43.5°F6.4°C 12.6°F-10.8°C 28% 2.0 mph NNW3.2 kmh NNW 4.5 mph7.2 kmh 25.01 in846.9 mb 0.00 in0.0 mm 0.00 in/hr0.0 mm/hr 0.00 in0.0 mm
01:24 AM 44.1°F6.7°C 12.2°F-11.0°C 27% 2.0 mph NNW3.2 kmh NNW 4.0 mph6.4 kmh 25.01 in846.9 mb 0.00 in0.0 mm 0.00 in/hr0.0 mm/hr 0.00 in0.0 mm
01:19 AM 45.1°F7.3°C 8.6°F-13.0°C 22% 4.0 mph 6.4 kmh 4.9 mph7.9 kmh 25.01 in846.9 mb 0.00 in0.0 mm 0.00 in/hr0.0 mm/hr 0.00 in0.0 mm
01:14 AM 45.9°F7.7°C 11.1°F-11.6°C 24% 2.0 mph E3.2 kmh E 5.4 mph8.7 kmh 25.01 in846.9 mb 0.00 in0.0 mm 0.00 in/hr0.0 mm/hr 0.00 in0.0 mm
01:09 AM 43.3°F6.3°C 12.4°F-10.9°C 28% 1.0 mph E1.6 kmh E 4.5 mph7.2 kmh 25.01 in846.9 mb 0.00 in0.0 mm 0.00 in/hr0.0 mm/hr 0.00 in0.0 mm
01:04 AM 43.2°F6.2°C 12.4°F-10.9°C 28% 1.0 mph E1.6 kmh E 4.0 mph6.4 kmh 25.01 in846.9 mb 0.00 in0.0 mm 0.00 in/hr0.0 mm/hr 0.00 in0.0 mm
12:59 AM 43.5°F6.4°C 10.0°F-12.2°C 25% 1.0 mph E1.6 kmh E 4.0 mph6.4 kmh 25.01 in846.9 mb 0.00 in0.0 mm 0.00 in/hr0.0 mm/hr 0.00 in0.0 mm
12:54 AM 43.7°F6.5°C 10.2°F-12.1°C 25% 2.0 mph E3.2 kmh E 3.6 mph5.8 kmh 25.01 in846.9 mb 0.00 in0.0 mm 0.00 in/hr0.0 mm/hr 0.00 in0.0 mm
12:49 AM 43.9°F6.6°C 7.5°F-13.6°C 22% 2.0 mph E3.2 kmh E 4.5 mph7.2 kmh 24.98 in845.9 mb 0.00 in0.0 mm 0.00 in/hr0.0 mm/hr 0.00 in0.0 mm
12:44 AM 44.8°F7.1°C 6.3°F-14.3°C 20% 1.0 mph E1.6 kmh E 4.5 mph7.2 kmh 24.98 in845.9 mb 0.00 in0.0 mm 0.00 in/hr0.0 mm/hr 0.00 in0.0 mm
12:39 AM 45.7°F7.6°C 3.4°F-15.9°C 17% Calm Calm 4.0 mph6.4 kmh 24.98 in845.9 mb 0.00 in0.0 mm 0.00 in/hr0.0 mm/hr 0.00 in0.0 mm
12:34 AM 45.9°F7.7°C 3.6°F-15.8°C 17% 2.0 mph E3.2 kmh E 4.0 mph6.4 kmh 24.98 in845.9 mb 0.00 in0.0 mm 0.00 in/hr0.0 mm/hr 0.00 in0.0 mm
12:29 AM 45.9°F7.7°C 3.6°F-15.8°C 17% 3.0 mph E4.8 kmh E 4.0 mph6.4 kmh 24.98 in845.9 mb 0.00 in0.0 mm 0.00 in/hr0.0 mm/hr 0.00 in0.0 mm
12:24 AM 44.8°F7.1°C 2.7°F-16.3°C 17% 2.0 mph N3.2 kmh N 6.3 mph10.1 kmh 24.98 in845.9 mb 0.00 in0.0 mm 0.00 in/hr0.0 mm/hr 0.00 in0.0 mm
12:19 AM 46.4°F8.0°C 3.9°F-15.6°C 17% 1.0 mph NW1.6 kmh NW 3.6 mph5.8 kmh 24.98 in845.9 mb 0.00 in0.0 mm 0.00 in/hr0.0 mm/hr 0.00 in0.0 mm
12:14 AM 45.9°F7.7°C -0.6°F-18.1°C 14% Calm Calm 2.7 mph4.3 kmh 24.98 in845.9 mb 0.00 in0.0 mm 0.00 in/hr0.0 mm/hr 0.00 in0.0 mm
12:09 AM 45.9°F7.7°C 3.6°F-15.8°C 17% 1.0 mph NW1.6 kmh NW 3.1 mph5.0 kmh 24.98 in845.9 mb 0.00 in0.0 mm 0.00 in/hr0.0 mm/hr 0.00 in0.0 mm
12:04 AM 45.9°F7.7°C -0.6°F-18.1°C 14% 2.0 mph NW3.2 kmh NW 4.5 mph7.2 kmh 24.98 in845.9 mb 0.00 in0.0 mm 0.00 in/hr0.0 mm/hr 0.00 in0.0 mm